createdAt,value
2023-03-31T00:02:37.182Z,1.40
2023-03-31T00:05:38.675Z,1.02
2023-03-31T00:08:40.204Z,1.02
2023-03-31T00:11:41.522Z,1.30
2023-03-31T00:14:43.454Z,1.27
2023-03-31T00:17:44.797Z,1.75
2023-03-31T00:20:46.047Z,1.42
2023-03-31T00:23:47.315Z,0.90
2023-03-31T00:26:48.687Z,1.13
2023-03-31T00:29:50.748Z,1.05
2023-03-31T00:32:52.154Z,1.17
2023-03-31T00:35:53.476Z,1.52
2023-03-31T00:39:02.428Z,1.50
2023-03-31T00:42:04.212Z,1.10
2023-03-31T00:45:14.861Z,1.08
2023-03-31T00:48:17.661Z,1.50
2023-03-31T00:51:20.047Z,1.65
2023-03-31T00:54:23.414Z,1.23
2023-03-31T00:57:25.973Z,1.42
2023-03-31T01:00:28.067Z,1.25
2023-03-31T01:03:33.221Z,1.42
2023-03-31T01:06:35.225Z,1.58
2023-03-31T01:09:38.704Z,1.23
2023-03-31T01:12:41.607Z,1.00
2023-03-31T01:15:43.403Z,0.93
2023-03-31T01:18:49.741Z,1.50
2023-03-31T01:22:00.711Z,0.95
2023-03-31T01:25:04.700Z,1.33
2023-03-31T01:28:10.858Z,1.08
2023-03-31T01:31:12.130Z,1.30
2023-03-31T01:34:16.251Z,1.10
2023-03-31T01:37:36.319Z,1.83
2023-03-31T01:41:03.646Z,1.20
2023-03-31T01:44:11.078Z,1.15
2023-03-31T01:47:22.681Z,2.08
2023-03-31T01:50:28.607Z,1.20
2023-03-31T01:53:33.375Z,1.58
2023-03-31T01:56:37.587Z,1.13
2023-03-31T01:59:43.677Z,1.55
2023-03-31T02:02:51.492Z,1.15
2023-03-31T02:05:57.931Z,1.23
2023-03-31T02:09:02.225Z,1.20
2023-03-31T02:12:06.043Z,1.42
2023-03-31T02:15:09.355Z,1.40
2023-03-31T02:18:13.245Z,1.42
2023-03-31T02:21:16.367Z,1.30
2023-03-31T02:24:19.609Z,1.65
2023-03-31T02:27:23.087Z,1.40
2023-03-31T02:30:29.500Z,1.13
2023-03-31T02:33:30.859Z,1.40
2023-03-31T02:36:33.471Z,1.20
2023-03-31T02:39:36.168Z,1.02
2023-03-31T02:42:38.318Z,1.38
2023-03-31T02:45:44.380Z,1.08
2023-03-31T02:48:50.082Z,1.33
2023-03-31T02:52:10.958Z,1.52
2023-03-31T02:55:20.126Z,1.08
2023-03-31T02:58:21.993Z,1.02
2023-03-31T03:01:23.293Z,1.42
2023-03-31T03:04:27.505Z,1.25
2023-03-31T03:07:37.555Z,1.00
2023-03-31T03:10:52.974Z,1.17
2023-03-31T03:14:14.714Z,1.05
2023-03-31T03:17:22.069Z,1.10
2023-03-31T03:20:23.802Z,1.13
2023-03-31T03:23:25.474Z,1.70
2023-03-31T03:26:28.133Z,1.40
2023-03-31T03:29:29.517Z,1.63
2023-03-31T03:32:31.235Z,1.13
2023-03-31T03:35:33.517Z,1.40
2023-03-31T03:38:34.819Z,2.92
2023-03-31T03:41:36.187Z,1.67
2023-03-31T03:44:37.476Z,2.15
2023-03-31T03:47:38.877Z,1.50
2023-03-31T03:50:41.180Z,1.30
2023-03-31T03:53:42.611Z,1.10
2023-03-31T03:56:44.139Z,1.73
2023-03-31T03:59:45.519Z,1.45
2023-03-31T04:02:47.141Z,1.60
2023-03-31T04:05:51.872Z,1.52
2023-03-31T04:11:54.270Z,1.15
2023-03-31T04:14:55.584Z,1.13
2023-03-31T04:17:58.225Z,1.30
2023-03-31T04:21:05.508Z,1.40
2023-03-31T04:24:07.006Z,1.17
2023-03-31T04:27:08.330Z,1.38
2023-03-31T04:30:09.893Z,1.45
2023-03-31T04:33:11.235Z,1.13
2023-03-31T04:36:18.624Z,1.40
2023-03-31T04:39:26.658Z,1.50
2023-03-31T04:42:27.952Z,1.33
2023-03-31T04:45:29.292Z,1.00
2023-03-31T04:48:30.791Z,1.77
2023-03-31T04:51:32.114Z,1.25
2023-03-31T04:54:33.359Z,1.05
2023-03-31T04:57:35.210Z,1.55
2023-03-31T05:00:36.459Z,1.08
2023-03-31T05:03:37.827Z,1.20
2023-03-31T05:06:39.197Z,1.00
2023-03-31T05:09:40.570Z,1.13
2023-03-31T05:12:41.876Z,1.48
2023-03-31T05:15:45.056Z,1.17
2023-03-31T05:18:46.456Z,1.35
2023-03-31T05:21:48.914Z,1.30
2023-03-31T05:24:50.242Z,1.00
2023-03-31T05:27:51.550Z,1.77
2023-03-31T05:30:53.029Z,1.20
2023-03-31T05:33:54.348Z,1.40
2023-03-31T05:36:55.756Z,1.23
2023-03-31T05:39:57.040Z,1.27
2023-03-31T05:42:58.325Z,1.20
2023-03-31T05:45:59.666Z,1.88
2023-03-31T05:49:01.000Z,1.42
2023-03-31T05:52:02.323Z,1.77
2023-03-31T05:55:04.533Z,1.85
2023-03-31T05:58:06.775Z,1.95
2023-03-31T06:01:10.036Z,1.98
2023-03-31T06:04:11.618Z,1.60
2023-03-31T06:07:13.374Z,2.50
2023-03-31T06:10:14.732Z,1.20
2023-03-31T06:13:16.097Z,2.22
2023-03-31T06:16:17.834Z,1.95
2023-03-31T06:22:21.051Z,2.15
2023-03-31T06:25:22.344Z,2.13
2023-03-31T06:28:23.867Z,2.40
2023-03-31T06:31:25.243Z,1.67
2023-03-31T06:34:27.124Z,1.63
2023-03-31T06:37:28.428Z,2.67
2023-03-31T06:40:29.885Z,2.67
2023-03-31T06:43:31.174Z,2.63
2023-03-31T06:46:32.573Z,1.80
2023-03-31T06:49:33.928Z,1.58
2023-03-31T06:52:35.754Z,2.00
2023-03-31T06:55:37.274Z,1.80
2023-03-31T06:58:38.611Z,2.97
2023-03-31T07:01:42.399Z,2.10
2023-03-31T07:04:43.690Z,2.17
2023-03-31T07:07:46.372Z,1.52
2023-03-31T07:10:49.096Z,2.33
2023-03-31T07:13:50.403Z,2.63
2023-03-31T07:16:51.915Z,2.50
2023-03-31T07:19:53.268Z,2.10
2023-03-31T07:22:54.646Z,2.22
2023-03-31T07:25:55.994Z,2.63
2023-03-31T07:28:57.586Z,3.05
2023-03-31T07:31:59.075Z,2.25
2023-03-31T07:35:00.580Z,2.08
2023-03-31T07:38:01.853Z,2.05
2023-03-31T07:41:09.264Z,2.80
2023-03-31T07:44:11.258Z,1.70
2023-03-31T07:47:12.506Z,2.60
2023-03-31T07:50:14.632Z,2.28
2023-03-31T07:53:16.198Z,2.50
2023-03-31T07:56:18.265Z,2.80
2023-03-31T07:59:19.622Z,2.10
2023-03-31T08:02:21.488Z,1.75
2023-03-31T08:05:22.922Z,2.35
2023-03-31T08:08:24.330Z,2.30
2023-03-31T08:11:26.071Z,2.03
2023-03-31T08:14:40.468Z,3.13
2023-03-31T08:17:42.890Z,3.30
2023-03-31T08:20:44.192Z,3.88
2023-03-31T08:23:45.562Z,3.40
2023-03-31T08:26:47.291Z,3.00
2023-03-31T08:29:49.949Z,2.53
2023-03-31T08:32:51.340Z,3.03
2023-03-31T08:35:52.736Z,3.47
2023-03-31T08:38:54.229Z,3.22
2023-03-31T08:41:58.783Z,1.65
2023-03-31T08:45:04.152Z,1.08
2023-03-31T08:48:08.450Z,1.52
2023-03-31T08:51:14.217Z,1.20
2023-03-31T08:54:38.277Z,1.65
2023-03-31T08:57:40.946Z,1.33
2023-03-31T09:00:53.760Z,1.50
2023-03-31T09:04:08.250Z,1.45
2023-03-31T09:07:20.566Z,1.35
2023-03-31T09:10:28.904Z,1.50
2023-03-31T09:13:44.958Z,1.85
2023-03-31T09:16:59.988Z,1.83
2023-03-31T09:20:21.641Z,1.40
2023-03-31T09:23:32.197Z,1.85
2023-03-31T09:26:40.469Z,2.13
2023-03-31T09:30:00.827Z,2.00
2023-03-31T09:33:19.230Z,1.80
2023-03-31T09:36:22.542Z,1.40
2023-03-31T09:39:24.070Z,1.13
2023-03-31T09:42:25.683Z,1.35
2023-03-31T09:45:28.644Z,1.40
2023-03-31T09:48:33.976Z,0.80
2023-03-31T09:51:37.331Z,0.90
2023-03-31T09:54:40.631Z,0.82
2023-03-31T09:57:41.936Z,1.20
2023-03-31T10:00:44.519Z,0.60
2023-03-31T10:03:49.572Z,0.93
2023-03-31T10:06:53.012Z,0.80
2023-03-31T10:09:54.874Z,0.70
2023-03-31T10:12:56.882Z,1.00
2023-03-31T10:16:12.731Z,1.48
2023-03-31T10:19:19.350Z,0.70
2023-03-31T10:22:20.634Z,1.90
2023-03-31T10:25:24.421Z,0.60
2023-03-31T10:28:25.904Z,0.95
2023-03-31T10:31:33.934Z,1.00
2023-03-31T10:34:38.805Z,0.95
2023-03-31T10:37:40.658Z,0.47
2023-03-31T10:40:50.030Z,0.80
2023-03-31T10:43:58.196Z,0.82
2023-03-31T10:47:19.641Z,1.50
2023-03-31T10:50:26.578Z,1.40
2023-03-31T10:53:27.917Z,1.02
2023-03-31T10:56:40.836Z,1.20
2023-03-31T11:00:01.823Z,1.65
2023-03-31T11:03:11.351Z,1.25
2023-03-31T11:06:22.071Z,1.02
2023-03-31T11:09:35.638Z,0.85
2023-03-31T11:12:44.546Z,1.17
2023-03-31T11:15:51.740Z,1.00
2023-03-31T11:19:18.275Z,1.20
2023-03-31T11:22:19.535Z,1.00
2023-03-31T11:25:28.455Z,1.70
2023-03-31T11:28:37.804Z,0.93
2023-03-31T11:31:57.827Z,2.28
2023-03-31T11:35:17.828Z,1.60
2023-03-31T11:38:19.670Z,0.82
2023-03-31T11:41:36.339Z,0.68
2023-03-31T11:44:42.810Z,1.73
2023-03-31T11:47:46.488Z,1.60
2023-03-31T11:50:48.637Z,0.65
2023-03-31T11:53:52.103Z,0.75
2023-03-31T11:56:54.807Z,1.27
2023-03-31T12:00:06.453Z,1.02
2023-03-31T12:03:16.785Z,0.80
2023-03-31T12:09:26.566Z,1.02
2023-03-31T12:12:29.813Z,0.77
2023-03-31T12:15:33.790Z,0.80
2023-03-31T12:21:39.420Z,0.73
2023-03-31T12:24:41.155Z,1.45
2023-03-31T12:27:43.709Z,0.60
2023-03-31T12:30:45.810Z,1.10
2023-03-31T12:33:50.976Z,0.60
2023-03-31T12:37:11.503Z,0.77
2023-03-31T12:40:23.202Z,0.50
2023-03-31T12:43:29.155Z,0.55
2023-03-31T12:46:43.191Z,0.60
2023-03-31T12:49:47.489Z,0.90
2023-03-31T12:52:51.568Z,0.50
2023-03-31T12:55:57.831Z,0.70
2023-03-31T12:59:17.804Z,0.85
2023-03-31T13:02:22.581Z,0.60
2023-03-31T13:05:36.350Z,0.95
2023-03-31T13:08:49.992Z,1.15
2023-03-31T13:11:51.668Z,0.82
2023-03-31T13:14:59.866Z,1.65
2023-03-31T13:18:02.711Z,0.57
2023-03-31T13:21:05.694Z,0.80
2023-03-31T13:24:07.508Z,0.60
2023-03-31T13:27:29.928Z,0.65
2023-03-31T13:30:37.238Z,1.10
2023-03-31T13:33:46.934Z,0.50
2023-03-31T13:37:06.667Z,2.20
2023-03-31T13:40:22.556Z,0.80
2023-03-31T13:43:30.278Z,0.73
2023-03-31T13:46:31.601Z,0.52
2023-03-31T13:49:45.371Z,0.80
2023-03-31T13:53:13.040Z,1.40
2023-03-31T13:56:33.200Z,0.82
2023-03-31T13:59:37.547Z,0.82
2023-03-31T14:05:53.835Z,0.80
2023-03-31T14:09:01.407Z,0.90
2023-03-31T14:12:18.916Z,0.88
2023-03-31T14:15:21.610Z,0.80
2023-03-31T14:18:30.961Z,1.05
2023-03-31T14:21:45.915Z,0.63
2023-03-31T14:25:06.008Z,1.48
2023-03-31T14:28:25.798Z,0.75
2023-03-31T14:31:40.831Z,1.05
2023-03-31T14:35:09.596Z,0.90
2023-03-31T14:38:13.195Z,0.60
2023-03-31T14:41:29.584Z,0.73
2023-03-31T14:44:31.073Z,0.57
2023-03-31T14:47:32.396Z,1.10
2023-03-31T14:50:34.729Z,0.63
2023-03-31T14:53:36.774Z,0.52
2023-03-31T14:56:39.091Z,1.00
2023-03-31T14:59:40.844Z,0.80
2023-03-31T15:02:43.106Z,0.60
2023-03-31T15:05:47.518Z,0.63
2023-03-31T15:08:50.535Z,0.63
2023-03-31T15:11:55.311Z,0.57
2023-03-31T15:15:04.279Z,1.08
2023-03-31T15:18:05.568Z,0.95
2023-03-31T15:21:10.409Z,0.52
2023-03-31T15:24:12.806Z,0.63
2023-03-31T15:27:36.068Z,0.55
2023-03-31T15:30:38.857Z,1.10
2023-03-31T15:33:42.184Z,1.70
2023-03-31T15:36:43.712Z,1.30
2023-03-31T15:39:47.346Z,2.15
2023-03-31T15:43:01.641Z,3.67
2023-03-31T15:46:11.682Z,1.48
2023-03-31T15:49:20.592Z,3.05
2023-03-31T15:52:22.811Z,2.63
2023-03-31T15:55:24.102Z,2.15
2023-03-31T15:58:45.938Z,1.88
2023-03-31T16:01:48.897Z,1.67
2023-03-31T16:04:53.556Z,1.38
2023-03-31T16:07:55.448Z,1.33
2023-03-31T16:11:02.517Z,0.85
2023-03-31T16:14:07.923Z,1.02
2023-03-31T16:17:18.235Z,1.20
2023-03-31T16:20:37.152Z,0.80
2023-03-31T16:23:41.102Z,1.02
2023-03-31T16:26:42.447Z,1.40
2023-03-31T16:29:43.803Z,1.00
2023-03-31T16:33:04.212Z,0.63
2023-03-31T16:36:08.799Z,1.00
2023-03-31T16:42:11.552Z,0.65
2023-03-31T16:45:14.968Z,0.57
2023-03-31T16:48:17.742Z,0.77
2023-03-31T16:51:19.504Z,1.05
2023-03-31T16:54:21.140Z,1.13
2023-03-31T16:57:22.845Z,0.90
2023-03-31T17:00:24.479Z,0.90
2023-03-31T17:03:26.412Z,1.25
2023-03-31T17:06:28.124Z,0.77
2023-03-31T17:09:29.456Z,0.82
2023-03-31T17:12:30.702Z,0.60
2023-03-31T17:15:32.118Z,0.80
2023-03-31T17:18:33.726Z,0.73
2023-03-31T17:21:37.323Z,0.80
2023-03-31T17:24:38.614Z,0.93
2023-03-31T17:27:40.164Z,0.95
2023-03-31T17:30:44.184Z,0.93
2023-03-31T17:33:46.168Z,0.90
2023-03-31T17:36:47.448Z,0.98
2023-03-31T17:39:48.863Z,0.80
2023-03-31T17:42:50.526Z,0.80
2023-03-31T17:45:59.973Z,0.70
2023-03-31T17:49:01.307Z,1.08
2023-03-31T17:52:02.656Z,0.73
2023-03-31T17:55:04.189Z,0.70
2023-03-31T17:58:06.355Z,0.50
2023-03-31T18:01:08.762Z,0.70
2023-03-31T18:04:10.290Z,0.70
2023-03-31T18:07:11.643Z,0.70
2023-03-31T18:10:13.048Z,0.55
2023-03-31T18:13:14.593Z,0.77
2023-03-31T18:16:15.891Z,0.75
2023-03-31T18:19:17.339Z,0.88
2023-03-31T18:22:18.589Z,1.20
2023-03-31T18:25:19.923Z,0.77
2023-03-31T18:28:21.600Z,0.80
2023-03-31T18:31:24.724Z,0.60
2023-03-31T18:34:26.700Z,0.47
2023-03-31T18:37:28.557Z,0.95
2023-03-31T18:40:30.129Z,0.88
2023-03-31T18:43:33.393Z,0.85
2023-03-31T18:46:34.918Z,0.63
2023-03-31T18:49:36.366Z,0.75
2023-03-31T18:52:37.672Z,0.95
2023-03-31T18:55:39.160Z,0.93
2023-03-31T18:58:40.516Z,0.65
2023-03-31T19:01:42.165Z,0.73
2023-03-31T19:04:44.266Z,2.25
2023-03-31T19:07:45.855Z,0.80
2023-03-31T19:10:47.177Z,0.52
2023-03-31T19:13:49.718Z,0.80
2023-03-31T19:16:51.443Z,0.60
2023-03-31T19:19:53.130Z,0.77
2023-03-31T19:22:55.608Z,0.50
2023-03-31T19:25:57.922Z,0.60
2023-03-31T19:28:59.239Z,1.10
2023-03-31T19:32:01.058Z,0.43
2023-03-31T19:35:02.546Z,0.63
2023-03-31T19:38:03.832Z,0.80
2023-03-31T19:41:07.515Z,0.65
2023-03-31T19:44:08.869Z,1.48
2023-03-31T19:47:11.199Z,0.43
2023-03-31T19:50:13.381Z,0.82
2023-03-31T19:53:15.054Z,0.70
2023-03-31T19:56:17.636Z,0.82
2023-03-31T19:59:19.114Z,0.70
2023-03-31T20:02:20.813Z,0.75
2023-03-31T20:05:22.222Z,0.80
2023-03-31T20:08:23.694Z,0.63
2023-03-31T20:11:25.938Z,0.80
2023-03-31T20:14:28.283Z,0.63
2023-03-31T20:17:29.883Z,0.63
2023-03-31T20:20:31.202Z,0.47
2023-03-31T20:23:33.005Z,0.50
2023-03-31T20:26:34.529Z,0.88
2023-03-31T20:29:35.791Z,0.80
2023-03-31T20:32:38.630Z,0.57
2023-03-31T20:35:39.996Z,0.90
2023-03-31T20:38:42.230Z,0.98
2023-03-31T20:41:44.034Z,0.90
2023-03-31T20:44:45.880Z,0.70
2023-03-31T20:47:47.247Z,1.27
2023-03-31T20:50:48.565Z,0.98
2023-03-31T20:53:52.673Z,0.63
2023-03-31T20:56:53.963Z,0.65
2023-03-31T20:59:57.120Z,0.70
2023-03-31T21:02:58.476Z,0.75
2023-03-31T21:06:04.108Z,0.88
2023-03-31T21:09:05.730Z,0.70
2023-03-31T21:12:07.172Z,0.65
2023-03-31T21:15:08.942Z,0.57
2023-03-31T21:18:10.403Z,0.65
2023-03-31T21:21:13.390Z,0.60
2023-03-31T21:24:14.713Z,0.70
2023-03-31T21:27:16.004Z,1.30
2023-03-31T21:30:17.880Z,0.43
2023-03-31T21:33:19.665Z,0.70
2023-03-31T21:36:22.399Z,1.20
2023-03-31T21:39:24.108Z,0.60
2023-03-31T21:42:25.362Z,0.80
2023-03-31T21:45:27.092Z,1.00
2023-03-31T21:48:28.624Z,0.68
2023-03-31T21:51:30.004Z,0.55
2023-03-31T21:54:31.284Z,0.77
2023-03-31T21:57:32.599Z,0.68
2023-03-31T22:00:35.884Z,0.70
2023-03-31T22:03:38.345Z,0.80
2023-03-31T22:06:39.867Z,0.90
2023-03-31T22:09:41.270Z,0.82
2023-03-31T22:12:43.121Z,0.73
2023-03-31T22:15:44.434Z,0.85
2023-03-31T22:18:47.077Z,0.80
2023-03-31T22:21:49.884Z,0.70
2023-03-31T22:24:51.873Z,1.00
2023-03-31T22:27:53.114Z,0.63
2023-03-31T22:30:54.365Z,0.70
2023-03-31T22:33:55.655Z,0.73
2023-03-31T22:36:57.029Z,0.93
2023-03-31T22:39:58.333Z,0.90
2023-03-31T22:43:00.951Z,1.05
2023-03-31T22:46:03.833Z,0.90
2023-03-31T22:49:05.729Z,1.23
2023-03-31T22:52:06.987Z,0.80
2023-03-31T22:55:08.582Z,0.82
2023-03-31T23:02:13.486Z,1.23
2023-03-31T23:05:14.817Z,0.90
2023-03-31T23:08:16.080Z,0.68
2023-03-31T23:11:18.666Z,0.73
2023-03-31T23:14:20.047Z,1.02
2023-03-31T23:17:21.425Z,0.68
2023-03-31T23:20:22.806Z,0.77
2023-03-31T23:23:24.111Z,1.10
2023-03-31T23:26:26.120Z,0.47
2023-03-31T23:29:28.008Z,0.43
2023-03-31T23:32:29.247Z,0.90
2023-03-31T23:35:31.155Z,0.60
2023-03-31T23:38:33.602Z,1.05
2023-03-31T23:41:34.896Z,0.95
2023-03-31T23:44:37.749Z,0.60
2023-03-31T23:47:40.888Z,0.70
2023-03-31T23:50:42.420Z,0.85
2023-03-31T23:53:43.664Z,1.00
2023-03-31T23:56:45.091Z,0.93
2023-03-31T23:59:46.398Z,1.02
